Time;durP1;ratioP1;P1;durP2;ratioP2;P2;SDS_P1;SDS_P2;PMS_P1;PMS_P2;Temp;Humidity;BMP_temperature;BMP_pressure;BME280_temperature;BME280_humidity;BME280_pressure;Samples;Min_cycle;Max_cycle;Signal;HPM_P1;HPM_P2
2023/07/14 00:01:24;;;;;;;;;;;;;;;23.26;69.15;100691.47;107520;1251;99070;-62
2023/07/14 00:03:52;;;;;;;;;;;;;;;23.26;68.80;100697.42;107479;1251;114042;-62
2023/07/14 00:06:21;;;;;;;;;;;;;;;23.26;68.59;100704.56;107553;1254;109392;-61
2023/07/14 00:08:49;;;;;;;;;;;;;;;23.24;68.94;100710.70;107618;1251;108571;-61
2023/07/14 00:11:19;;;;;;;;;;;;;;;23.21;68.97;100714.43;107638;1251;99195;-64
2023/07/14 00:13:48;;;;;;;;;;;;;;;23.18;69.32;100715.48;107610;1251;99039;-64
2023/07/14 00:16:18;;;;;;;;;;;;;;;23.10;69.87;100710.20;107647;1251;111943;-62
2023/07/14 00:18:46;;;;;;;;;;;;;;;23.01;70.41;100720.47;107631;1251;109352;-62
2023/07/14 00:21:22;;;;;;;;;;;;;;;22.92;70.31;100730.55;107612;1251;108526;-61
2023/07/14 00:23:54;;;;;;;;;;;;;;;22.84;71.21;100735.00;107577;1254;99157;-61
2023/07/14 00:26:22;;;;;;;;;;;;;;;22.76;71.10;100723.10;107645;1251;99253;-63
2023/07/14 00:28:51;;;;;;;;;;;;;;;22.75;70.49;100694.24;107612;1254;114443;-62
2023/07/14 00:31:20;;;;;;;;;;;;;;;22.79;70.93;100673.73;107604;1251;110423;-61
2023/07/14 00:33:52;;;;;;;;;;;;;;;22.84;70.51;100676.52;107603;1256;107645;-61
2023/07/14 00:36:22;;;;;;;;;;;;;;;22.82;70.59;100675.56;107582;1251;99250;-62
2023/07/14 00:38:50;;;;;;;;;;;;;;;22.75;71.35;100686.02;107522;1251;99076;-61
2023/07/14 00:41:21;;;;;;;;;;;;;;;22.64;71.38;100694.81;107500;1251;113115;-65
2023/07/14 00:43:50;;;;;;;;;;;;;;;22.54;71.99;100700.67;107700;1251;108891;-63
2023/07/14 00:46:36;;;;;;;;;;;;;;;22.45;72.61;100705.05;107610;1254;107195;-61
2023/07/14 00:49:10;;;;;;;;;;;;;;;22.42;72.43;100715.98;107602;1253;99169;-67
2023/07/14 00:51:39;;;;;;;;;;;;;;;22.41;72.39;100722.91;107599;1251;99073;-63
2023/07/14 00:54:21;;;;;;;;;;;;;;;22.41;72.34;100727.30;107601;1251;113705;-62
2023/07/14 00:56:50;;;;;;;;;;;;;;;22.41;72.60;100737.25;107488;1251;109428;-62
2023/07/14 00:59:29;;;;;;;;;;;;;;;22.38;72.64;100744.30;107442;1253;107955;-61
2023/07/14 01:02:15;;;;;;;;;;;;;;;22.33;73.21;100749.88;107595;1253;99307;-63
2023/07/14 01:04:46;;;;;;;;;;;;;;;22.28;73.64;100747.80;107539;1251;99205;-61
2023/07/14 01:07:16;;;;;;;;;;;;;;;22.24;73.83;100749.56;107512;1250;113486;-66
2023/07/14 01:09:46;;;;;;;;;;;;;;;22.24;73.50;100746.53;107546;1250;110072;-66
2023/07/14 01:12:17;;;;;;;;;;;;;;;22.24;73.53;100746.66;107476;1250;107598;-62
2023/07/14 01:14:47;;;;;;;;;;;;;;;22.24;73.30;100740.96;107593;1251;99151;-61
2023/07/14 01:17:16;;;;;;;;;;;;;;;22.25;73.58;100740.30;107641;1254;99182;-62
2023/07/14 01:19:48;;;;;;;;;;;;;;;22.20;73.71;100741.48;107547;1251;112733;-62
2023/07/14 01:22:16;;;;;;;;;;;;;;;22.14;74.26;100730.02;107590;1251;110155;-61
2023/07/14 01:24:50;;;;;;;;;;;;;;;22.10;74.01;100720.73;107476;1251;107525;-63
2023/07/14 01:27:18;;;;;;;;;;;;;;;22.09;74.18;100715.00;107448;1250;99647;-61
2023/07/14 01:29:47;;;;;;;;;;;;;;;22.03;74.43;100717.45;107521;1251;99150;-61
2023/07/14 01:32:17;;;;;;;;;;;;;;;21.97;74.79;100719.56;107480;1250;112799;-62
2023/07/14 01:34:47;;;;;;;;;;;;;;;21.88;75.62;100728.79;107506;1251;108677;-62
2023/07/14 01:37:19;;;;;;;;;;;;;;;21.80;75.73;100738.17;107586;1253;108690;-62
2023/07/14 01:39:48;;;;;;;;;;;;;;;21.77;75.73;100731.23;107631;1253;99384;-62
2023/07/14 01:42:18;;;;;;;;;;;;;;;21.73;75.73;100746.05;107699;1256;99186;-64
2023/07/14 01:44:48;;;;;;;;;;;;;;;21.69;76.29;100757.21;107653;1256;113627;-62
2023/07/14 01:47:16;;;;;;;;;;;;;;;21.64;76.31;100761.84;107672;1251;108408;-62
2023/07/14 01:49:46;;;;;;;;;;;;;;;21.57;76.35;100765.15;107630;1251;108094;-61
2023/07/14 01:52:29;;;;;;;;;;;;;;;21.52;76.78;100765.42;107624;1251;99045;-62
2023/07/14 01:55:01;;;;;;;;;;;;;;;21.47;76.96;100775.40;107671;1251;99163;-62
2023/07/14 01:57:33;;;;;;;;;;;;;;;21.48;76.43;100781.67;107492;1251;112323;-62
2023/07/14 02:00:04;;;;;;;;;;;;;;;21.50;76.10;100787.57;107610;1256;109283;-61
2023/07/14 02:02:43;;;;;;;;;;;;;;;21.51;76.14;100795.98;107567;1253;108626;-62
2023/07/14 02:05:19;;;;;;;;;;;;;;;21.52;76.14;100809.55;107655;1254;99258;-61
2023/07/14 02:07:48;;;;;;;;;;;;;;;21.51;75.96;100818.94;107607;1254;99182;-62
2023/07/14 02:10:18;;;;;;;;;;;;;;;21.51;75.98;100829.76;107575;1251;113115;-61
2023/07/14 02:12:49;;;;;;;;;;;;;;;21.50;75.95;100839.02;107438;1251;109176;-62
2023/07/14 02:15:30;;;;;;;;;;;;;;;21.49;76.21;100839.35;107591;1252;106745;-62
2023/07/14 02:18:10;;;;;;;;;;;;;;;21.44;76.59;100832.83;107425;1251;99290;-67
2023/07/14 02:20:47;;;;;;;;;;;;;;;21.36;76.76;100821.65;107592;1251;99146;-65
2023/07/14 02:23:19;;;;;;;;;;;;;;;21.31;76.96;100821.52;107542;1250;113797;-65
2023/07/14 02:25:58;;;;;;;;;;;;;;;21.23;77.50;100832.16;107550;1253;109433;-63
2023/07/14 02:28:30;;;;;;;;;;;;;;;21.15;78.12;100838.76;107522;1252;107868;-63
2023/07/14 02:31:13;;;;;;;;;;;;;;;21.11;78.07;100845.09;107573;1251;99678;-68
2023/07/14 02:33:43;;;;;;;;;;;;;;;21.08;78.08;100853.49;107445;1254;99173;-65
2023/07/14 02:36:31;;;;;;;;;;;;;;;21.04;78.35;100852.77;107601;1256;113020;-64
2023/07/14 02:39:10;;;;;;;;;;;;;;;20.99;78.16;100842.52;107619;1251;109332;-66
2023/07/14 02:41:41;;;;;;;;;;;;;;;21.00;77.92;100839.82;107400;1253;108268;-66
2023/07/14 02:44:12;;;;;;;;;;;;;;;21.04;77.37;100829.62;107391;1251;99064;-64
2023/07/14 02:46:47;;;;;;;;;;;;;;;21.11;77.35;100823.72;107466;1254;99140;-66
2023/07/14 02:49:16;;;;;;;;;;;;;;;21.12;77.31;100823.76;107491;1257;114444;-64
2023/07/14 02:51:49;;;;;;;;;;;;;;;21.13;77.09;100824.99;107634;1251;109699;-65
2023/07/14 02:54:23;;;;;;;;;;;;;;;21.12;77.18;100827.08;107599;1250;109102;-66
2023/07/14 02:56:54;;;;;;;;;;;;;;;21.11;77.36;100830.61;107625;1254;99323;-64
2023/07/14 02:59:23;;;;;;;;;;;;;;;21.11;76.94;100829.91;107432;1253;99177;-64
2023/07/14 03:01:51;;;;;;;;;;;;;;;21.10;76.94;100831.20;107532;1251;113110;-62
2023/07/14 03:04:20;;;;;;;;;;;;;;;21.08;77.36;100826.69;107530;1251;109839;-61
2023/07/14 03:06:48;;;;;;;;;;;;;;;21.04;77.38;100820.87;107564;1250;108046;-61
2023/07/14 03:09:17;;;;;;;;;;;;;;;21.02;77.56;100814.59;107621;1251;99343;-62
2023/07/14 03:11:45;;;;;;;;;;;;;;;21.02;77.30;100820.20;107525;1251;99054;-62
2023/07/14 03:14:13;;;;;;;;;;;;;;;21.03;77.41;100827.55;107510;1251;112678;-61
2023/07/14 03:16:41;;;;;;;;;;;;;;;21.03;77.72;100835.42;107573;1251;109718;-66
2023/07/14 03:19:13;;;;;;;;;;;;;;;21.04;77.31;100834.64;107585;1251;108327;-62
2023/07/14 03:21:41;;;;;;;;;;;;;;;21.09;77.29;100831.86;107555;1254;99211;-60
2023/07/14 03:24:09;;;;;;;;;;;;;;;21.10;76.97;100837.30;107641;1254;99314;-62
2023/07/14 03:26:37;;;;;;;;;;;;;;;21.10;77.23;100841.21;107523;1251;112781;-61
2023/07/14 03:29:06;;;;;;;;;;;;;;;21.07;77.10;100843.52;107499;1251;109747;-61
2023/07/14 03:31:33;;;;;;;;;;;;;;;21.07;77.28;100849.20;107492;1251;108686;-61
2023/07/14 03:34:02;;;;;;;;;;;;;;;21.09;77.26;100853.75;107463;1251;99201;-61
2023/07/14 03:36:30;;;;;;;;;;;;;;;21.10;77.33;100855.78;107479;1251;99185;-61
2023/07/14 03:39:20;;;;;;;;;;;;;;;21.08;77.33;100855.30;107550;1251;113617;-60
2023/07/14 03:41:48;;;;;;;;;;;;;;;21.11;77.00;100857.45;107570;1251;109847;-60
2023/07/14 03:44:17;;;;;;;;;;;;;;;21.12;77.15;100860.75;107505;1250;107190;-61
2023/07/14 03:46:45;;;;;;;;;;;;;;;21.10;77.16;100859.36;107572;1251;99167;-61
2023/07/14 03:49:14;;;;;;;;;;;;;;;21.09;77.28;100864.23;107592;1251;99189;-60
2023/07/14 03:51:43;;;;;;;;;;;;;;;21.05;77.28;100877.84;107512;1251;113479;-63
2023/07/14 03:54:11;;;;;;;;;;;;;;;21.05;77.41;100879.82;107504;1251;109517;-66
2023/07/14 03:56:44;;;;;;;;;;;;;;;21.05;77.22;100880.63;107446;1251;107425;-64
2023/07/14 03:59:15;;;;;;;;;;;;;;;21.05;77.32;100878.48;107447;1251;99275;-63
2023/07/14 04:01:45;;;;;;;;;;;;;;;21.06;77.14;100878.36;107564;1251;99189;-66
2023/07/14 04:04:13;;;;;;;;;;;;;;;21.08;77.15;100889.35;107609;1251;113025;-62
2023/07/14 04:06:42;;;;;;;;;;;;;;;21.11;76.93;100891.21;107575;1251;109923;-62
2023/07/14 04:09:10;;;;;;;;;;;;;;;21.11;76.82;100892.91;107582;1253;106309;-62
2023/07/14 04:11:38;;;;;;;;;;;;;;;21.15;76.72;100899.77;107611;1251;99285;-61
2023/07/14 04:14:07;;;;;;;;;;;;;;;21.17;76.52;100893.52;107485;1257;99063;-63
2023/07/14 04:16:35;;;;;;;;;;;;;;;21.21;76.39;100902.53;107566;1254;112910;-63
2023/07/14 04:19:04;;;;;;;;;;;;;;;21.24;76.14;100900.74;107598;1254;110076;-61
2023/07/14 04:21:33;;;;;;;;;;;;;;;21.30;76.23;100902.78;107600;1251;108071;-62
2023/07/14 04:24:01;;;;;;;;;;;;;;;21.36;76.01;100895.60;107599;1255;99172;-63
2023/07/14 04:26:29;;;;;;;;;;;;;;;21.42;75.51;100887.88;107577;1251;99188;-62
2023/07/14 04:28:58;;;;;;;;;;;;;;;21.47;75.31;100886.42;107602;1255;112545;-62
2023/07/14 04:31:28;;;;;;;;;;;;;;;21.47;75.20;100889.71;107560;1253;110049;-60
2023/07/14 04:33:56;;;;;;;;;;;;;;;21.51;75.21;100890.19;107631;1251;108424;-62
2023/07/14 04:36:24;;;;;;;;;;;;;;;21.50;74.97;100902.90;107556;1251;99189;-61
2023/07/14 04:39:01;;;;;;;;;;;;;;;21.44;75.16;100905.16;107553;1251;99044;-63
2023/07/14 04:41:30;;;;;;;;;;;;;;;21.41;75.17;100899.45;107590;1254;111990;-62
2023/07/14 04:44:05;;;;;;;;;;;;;;;21.39;75.24;100902.89;107568;1250;108228;-63
2023/07/14 04:46:34;;;;;;;;;;;;;;;21.41;75.05;100907.55;107550;1254;107035;-64
2023/07/14 04:49:02;;;;;;;;;;;;;;;21.42;74.84;100909.11;107579;1253;99298;-61
2023/07/14 04:51:32;;;;;;;;;;;;;;;21.45;74.61;100913.16;107584;1251;99282;-61
2023/07/14 04:54:00;;;;;;;;;;;;;;;21.47;74.62;100914.05;107562;1250;113092;-63
2023/07/14 04:56:29;;;;;;;;;;;;;;;21.53;74.63;100917.44;107497;1251;109244;-61
2023/07/14 04:58:58;;;;;;;;;;;;;;;21.63;74.55;100917.42;107523;1251;108490;-61
2023/07/14 05:01:27;;;;;;;;;;;;;;;21.74;74.10;100929.45;107477;1251;99175;-62
2023/07/14 05:03:56;;;;;;;;;;;;;;;21.82;73.80;100938.60;107487;1251;99045;-62
2023/07/14 05:06:24;;;;;;;;;;;;;;;21.93;73.67;100943.10;107544;1251;113379;-63
2023/07/14 05:08:53;;;;;;;;;;;;;;;22.04;73.37;100937.94;107556;1253;109846;-62
2023/07/14 05:11:21;;;;;;;;;;;;;;;22.17;73.23;100950.52;107568;1251;108011;-61
2023/07/14 05:13:51;;;;;;;;;;;;;;;22.32;72.64;100959.59;107544;1254;99867;-63
2023/07/14 05:16:19;;;;;;;;;;;;;;;22.41;72.01;100970.13;107557;1251;99063;-65
2023/07/14 05:18:48;;;;;;;;;;;;;;;22.47;71.17;100973.84;107556;1251;112965;-62
2023/07/14 05:21:17;;;;;;;;;;;;;;;22.44;70.67;100964.57;107531;1251;109873;-60
2023/07/14 05:23:45;;;;;;;;;;;;;;;22.50;70.66;100970.67;107663;1251;108079;-63
2023/07/14 05:26:13;;;;;;;;;;;;;;;22.57;70.59;100979.83;107535;1251;99160;-61
2023/07/14 05:28:42;;;;;;;;;;;;;;;22.61;70.48;100985.64;107574;1251;99154;-63
2023/07/14 05:31:12;;;;;;;;;;;;;;;22.54;70.09;100995.40;107544;1251;113280;-63
2023/07/14 05:33:41;;;;;;;;;;;;;;;22.44;70.38;100991.13;107519;1251;109577;-61
2023/07/14 05:36:09;;;;;;;;;;;;;;;22.44;70.47;100995.52;107481;1252;109102;-62
2023/07/14 05:38:38;;;;;;;;;;;;;;;22.42;70.03;101001.75;107608;1254;99303;-62
2023/07/14 05:41:13;;;;;;;;;;;;;;;22.36;69.46;101006.52;107612;1251;99193;-66
2023/07/14 05:43:44;;;;;;;;;;;;;;;22.24;69.47;101010.05;107567;1251;112792;-63
2023/07/14 05:46:13;;;;;;;;;;;;;;;22.11;69.96;101015.20;107569;1254;110215;-64
2023/07/14 05:48:43;;;;;;;;;;;;;;;22.07;70.19;101028.34;107470;1253;108058;-64
2023/07/14 05:51:11;;;;;;;;;;;;;;;22.03;70.30;101036.75;107576;1253;99165;-61
2023/07/14 05:53:39;;;;;;;;;;;;;;;21.96;69.96;101041.25;107544;1251;99179;-61
2023/07/14 05:56:07;;;;;;;;;;;;;;;21.91;69.91;101036.75;107538;1254;112283;-62
2023/07/14 05:58:35;;;;;;;;;;;;;;;21.94;69.94;101036.52;107591;1254;109305;-61
2023/07/14 06:01:04;;;;;;;;;;;;;;;21.94;70.15;101036.64;107596;1254;107672;-62
2023/07/14 06:03:32;;;;;;;;;;;;;;;21.99;70.42;101041.17;107600;1252;99361;-62
2023/07/14 06:06:04;;;;;;;;;;;;;;;22.01;70.81;101046.36;107621;1256;99230;-62
2023/07/14 06:08:32;;;;;;;;;;;;;;;22.05;71.03;101058.01;107580;1252;112380;-63
2023/07/14 06:11:00;;;;;;;;;;;;;;;22.02;71.30;101058.96;107639;1254;109687;-62
2023/07/14 06:13:28;;;;;;;;;;;;;;;21.95;71.53;101061.38;107614;1253;107828;-62
2023/07/14 06:15:56;;;;;;;;;;;;;;;21.88;72.08;101072.52;107615;1253;99817;-62
2023/07/14 06:18:24;;;;;;;;;;;;;;;21.83;72.80;101069.52;107606;1254;99170;-60
2023/07/14 06:20:53;;;;;;;;;;;;;;;21.81;72.66;101069.04;107624;1255;113409;-60
2023/07/14 06:23:22;;;;;;;;;;;;;;;21.86;72.90;101068.80;107580;1254;109473;-62
2023/07/14 06:25:50;;;;;;;;;;;;;;;21.90;72.87;101064.19;107599;1252;108478;-63
2023/07/14 06:28:18;;;;;;;;;;;;;;;21.95;73.16;101066.45;107605;1256;99301;-61
2023/07/14 06:30:46;;;;;;;;;;;;;;;22.02;72.99;101054.91;107598;1251;99050;-68
2023/07/14 06:33:15;;;;;;;;;;;;;;;22.25;72.76;101046.30;107595;1251;113245;-61
2023/07/14 06:35:44;;;;;;;;;;;;;;;22.49;71.97;101043.55;107565;1252;110224;-60
2023/07/14 06:38:12;;;;;;;;;;;;;;;22.63;70.01;101041.50;107555;1251;108204;-62
2023/07/14 06:40:41;;;;;;;;;;;;;;;22.70;69.14;101035.34;107596;1250;99273;-62
2023/07/14 06:43:09;;;;;;;;;;;;;;;22.79;68.48;101036.99;107616;1251;99047;-63
2023/07/14 06:45:37;;;;;;;;;;;;;;;22.86;67.16;101031.23;107597;1254;112835;-62
2023/07/14 06:48:06;;;;;;;;;;;;;;;22.96;66.50;101031.16;107597;1255;109514;-62
2023/07/14 06:50:36;;;;;;;;;;;;;;;22.98;65.42;101028.28;107606;1254;106701;-63
2023/07/14 06:53:04;;;;;;;;;;;;;;;23.00;65.23;101028.54;107649;1254;99259;-63
2023/07/14 06:55:32;;;;;;;;;;;;;;;23.01;65.07;101031.28;107643;1251;99051;-63
2023/07/14 06:58:00;;;;;;;;;;;;;;;22.95;65.00;101032.00;107600;1251;113133;-62
2023/07/14 07:00:31;;;;;;;;;;;;;;;23.04;65.43;101025.92;107638;1251;109862;-62
2023/07/14 07:02:59;;;;;;;;;;;;;;;23.14;64.90;101024.13;107611;1251;108589;-62
2023/07/14 07:05:28;;;;;;;;;;;;;;;23.21;64.84;101020.59;107574;1251;99187;-62
2023/07/14 07:07:56;;;;;;;;;;;;;;;23.39;64.54;101015.52;107603;1251;99301;-61
2023/07/14 07:10:25;;;;;;;;;;;;;;;23.56;64.03;101014.11;107608;1251;112577;-63
2023/07/14 07:12:53;;;;;;;;;;;;;;;23.67;63.00;101016.56;107617;1254;108934;-62
2023/07/14 07:15:21;;;;;;;;;;;;;;;23.65;62.47;101027.70;107611;1254;108223;-61
2023/07/14 07:17:49;;;;;;;;;;;;;;;23.63;62.38;101029.39;107609;1253;99304;-61
2023/07/14 07:20:17;;;;;;;;;;;;;;;23.75;62.25;101026.84;107588;1254;99165;-63
2023/07/14 07:22:45;;;;;;;;;;;;;;;23.82;61.80;101027.83;107631;1252;113077;-62
2023/07/14 07:25:14;;;;;;;;;;;;;;;24.00;61.73;101028.32;107650;1251;109905;-63
2023/07/14 07:27:43;;;;;;;;;;;;;;;24.28;61.29;101037.30;107601;1254;108495;-61
2023/07/14 07:30:11;;;;;;;;;;;;;;;24.58;61.10;101040.39;107577;1252;99057;-64
2023/07/14 07:32:40;;;;;;;;;;;;;;;24.83;59.86;101047.08;107577;1254;99096;-62
2023/07/14 07:35:09;;;;;;;;;;;;;;;24.94;58.78;101043.80;107603;1254;113388;-63
2023/07/14 07:37:37;;;;;;;;;;;;;;;25.03;58.10;101052.84;107638;1251;109036;-62
2023/07/14 07:40:09;;;;;;;;;;;;;;;24.97;57.58;101052.29;107580;1251;108635;-62
2023/07/14 07:42:38;;;;;;;;;;;;;;;24.94;57.61;101056.42;107640;1251;99173;-61
2023/07/14 07:45:06;;;;;;;;;;;;;;;24.99;57.46;101055.70;107659;1251;99182;-62
2023/07/14 07:47:35;;;;;;;;;;;;;;;25.05;57.77;101060.98;107621;1251;111474;-61
2023/07/14 07:50:04;;;;;;;;;;;;;;;25.10;56.87;101055.59;107613;1251;108357;-61
2023/07/14 07:52:33;;;;;;;;;;;;;;;25.08;56.61;101056.05;107651;1251;107690;-61
2023/07/14 07:55:01;;;;;;;;;;;;;;;25.05;56.20;101063.53;107602;1251;99218;-61
2023/07/14 07:57:29;;;;;;;;;;;;;;;24.96;56.56;101062.20;107610;1254;99051;-62
2023/07/14 07:59:57;;;;;;;;;;;;;;;24.82;56.80;101060.91;107614;1254;113244;-62
2023/07/14 08:02:25;;;;;;;;;;;;;;;24.66;56.99;101063.06;106930;1254;882048;-62
2023/07/14 08:04:54;;;;;;;;;;;;;;;24.51;57.18;101061.22;107678;1253;108571;-64
2023/07/14 08:07:23;;;;;;;;;;;;;;;24.36;57.86;101060.05;107681;1251;99670;-62
2023/07/14 08:09:53;;;;;;;;;;;;;;;24.33;58.57;101055.06;107651;1254;99159;-62
2023/07/14 08:12:21;;;;;;;;;;;;;;;24.46;58.36;101054.90;107630;1251;113586;-62
2023/07/14 08:14:50;;;;;;;;;;;;;;;24.55;57.40;101060.77;107612;1251;109596;-62
2023/07/14 08:17:26;;;;;;;;;;;;;;;24.59;57.37;101061.88;107607;1251;108079;-61
2023/07/14 08:19:54;;;;;;;;;;;;;;;24.60;57.84;101062.92;107630;1250;99200;-62
2023/07/14 08:22:23;;;;;;;;;;;;;;;24.67;57.63;101063.39;107594;1254;99152;-61
2023/07/14 08:24:53;;;;;;;;;;;;;;;24.81;57.34;101066.86;107617;1254;113183;-62
2023/07/14 08:27:21;;;;;;;;;;;;;;;24.97;56.27;101063.34;107609;1255;109962;-62
2023/07/14 08:29:50;;;;;;;;;;;;;;;25.08;56.03;101061.77;107607;1253;107902;-62
2023/07/14 08:32:18;;;;;;;;;;;;;;;25.18;55.88;101060.98;107591;1251;99175;-61
2023/07/14 08:34:46;;;;;;;;;;;;;;;25.32;55.48;101059.67;107618;1251;99064;-62
2023/07/14 08:37:14;;;;;;;;;;;;;;;25.51;53.68;101045.94;107584;1253;113330;-63
2023/07/14 08:39:43;;;;;;;;;;;;;;;25.56;53.66;101044.94;107648;1251;109139;-62
2023/07/14 08:42:31;;;;;;;;;;;;;;;25.60;54.01;101045.88;107615;1251;107860;-63
2023/07/14 08:45:18;;;;;;;;;;;;;;;25.67;53.69;101050.65;107521;1255;99206;-63
2023/07/14 08:48:07;;;;;;;;;;;;;;;25.70;53.43;101052.06;107624;1254;99221;-63
2023/07/14 08:50:36;;;;;;;;;;;;;;;25.83;53.53;101048.67;107525;1254;113546;-62
2023/07/14 08:53:08;;;;;;;;;;;;;;;26.09;52.74;101038.60;107636;1253;108766;-63
2023/07/14 08:55:38;;;;;;;;;;;;;;;26.31;51.11;101042.46;107646;1254;107792;-62
2023/07/14 08:58:16;;;;;;;;;;;;;;;26.51;50.31;101040.30;107565;1254;99172;-62
2023/07/14 09:01:08;;;;;;;;;;;;;;;26.65;49.94;101039.52;107663;1254;99249;-65
2023/07/14 09:03:50;;;;;;;;;;;;;;;26.74;49.86;101042.64;107626;1254;112312;-63
2023/07/14 09:06:23;;;;;;;;;;;;;;;26.90;49.93;101040.39;107632;1254;109423;-63
2023/07/14 09:08:53;;;;;;;;;;;;;;;27.15;49.06;101048.89;107617;1255;107728;-62
2023/07/14 09:11:40;;;;;;;;;;;;;;;27.38;49.28;101050.23;107647;1253;99176;-62
2023/07/14 09:14:15;;;;;;;;;;;;;;;27.69;47.69;101047.23;107632;1251;99237;-63
2023/07/14 09:16:52;;;;;;;;;;;;;;;27.89;47.23;101044.30;107632;1255;113459;-63
2023/07/14 09:19:20;;;;;;;;;;;;;;;28.05;46.09;101041.16;107594;1251;109645;-64
2023/07/14 09:21:55;;;;;;;;;;;;;;;28.13;46.05;101043.19;107619;1251;107498;-63
2023/07/14 09:24:33;;;;;;;;;;;;;;;28.23;45.78;101043.55;107627;1253;99848;-63
2023/07/14 09:27:03;;;;;;;;;;;;;;;28.46;45.60;101044.84;107620;1252;99176;-62
2023/07/14 09:29:37;;;;;;;;;;;;;;;28.69;44.40;101047.52;107587;1251;113410;-62
2023/07/14 09:32:17;;;;;;;;;;;;;;;28.80;43.43;101048.89;107563;1251;110879;-62
2023/07/14 09:35:14;;;;;;;;;;;;;;;28.80;43.37;101047.94;107575;1251;108582;-62
2023/07/14 09:37:47;;;;;;;;;;;;;;;28.80;43.67;101057.08;107507;1254;99157;-63
2023/07/14 09:40:18;;;;;;;;;;;;;;;28.87;43.44;101057.92;107671;1253;98952;-63
2023/07/14 09:42:50;;;;;;;;;;;;;;;29.05;43.16;101054.42;107656;1254;113251;-62
2023/07/14 09:45:29;;;;;;;;;;;;;;;29.25;42.63;101049.50;107614;1254;109842;-63
2023/07/14 09:48:11;;;;;;;;;;;;;;;29.42;42.28;101045.73;107624;1251;107798;-64
2023/07/14 09:51:00;;;;;;;;;;;;;;;29.73;42.69;101050.95;107667;1254;99060;-61
2023/07/14 09:53:31;;;;;;;;;;;;;;;30.04;40.07;101043.02;107629;1251;99057;-62
2023/07/14 09:56:16;;;;;;;;;;;;;;;30.08;40.22;101045.33;107582;1251;112347;-63
2023/07/14 09:58:52;;;;;;;;;;;;;;;30.17;40.85;101051.42;107604;1251;109631;-62
2023/07/14 10:01:21;;;;;;;;;;;;;;;29.94;40.40;101052.09;107651;1255;107974;-62
2023/07/14 10:03:54;;;;;;;;;;;;;;;29.66;41.52;101056.25;107598;1255;99283;-63
2023/07/14 10:06:27;;;;;;;;;;;;;;;29.64;41.65;101056.25;107588;1255;99087;-63
2023/07/14 10:08:58;;;;;;;;;;;;;;;29.91;41.26;101050.55;107625;1254;112860;-62
2023/07/14 10:11:49;;;;;;;;;;;;;;;29.87;40.64;101049.10;107650;1254;109756;-62
2023/07/14 10:14:35;;;;;;;;;;;;;;;29.92;40.74;101051.95;107556;1251;108839;-63
2023/07/14 10:17:04;;;;;;;;;;;;;;;30.34;39.75;101047.86;107628;1251;99163;-61
2023/07/14 10:19:39;;;;;;;;;;;;;;;30.52;39.55;101044.06;107641;1251;99150;-62
2023/07/14 10:22:08;;;;;;;;;;;;;;;30.34;39.21;101050.75;107664;1256;113547;-62
2023/07/14 10:24:37;;;;;;;;;;;;;;;29.82;40.38;101054.83;107623;1251;109251;-63
2023/07/14 10:27:15;;;;;;;;;;;;;;;29.87;40.62;101053.38;107664;1251;105693;-61
2023/07/14 10:29:48;;;;;;;;;;;;;;;30.17;39.92;101051.59;107585;1254;99249;-60
2023/07/14 10:32:22;;;;;;;;;;;;;;;30.42;39.09;101051.50;107548;1254;99154;-61
2023/07/14 10:34:57;;;;;;;;;;;;;;;30.99;39.03;101056.44;107621;1253;112506;-62
2023/07/14 10:37:30;;;;;;;;;;;;;;;31.88;37.22;101049.81;107631;1254;109310;-62
2023/07/14 10:40:11;;;;;;;;;;;;;;;32.57;36.91;101053.20;107609;1251;108455;-63
2023/07/14 10:42:40;;;;;;;;;;;;;;;32.38;35.44;101052.36;107661;1251;99156;-61
2023/07/14 10:45:13;;;;;;;;;;;;;;;32.39;36.10;101054.52;107662;1251;99314;-63
2023/07/14 10:47:53;;;;;;;;;;;;;;;33.04;36.33;101055.55;107686;1251;112422;-64
2023/07/14 10:50:24;;;;;;;;;;;;;;;33.30;35.19;101056.05;107616;1251;109260;-63
2023/07/14 10:52:57;;;;;;;;;;;;;;;32.96;34.70;101049.92;107608;1254;107856;-63
2023/07/14 10:55:28;;;;;;;;;;;;;;;32.60;35.81;101057.55;107614;1254;99167;-64
2023/07/14 10:58:13;;;;;;;;;;;;;;;32.28;36.38;101059.58;107594;1254;99169;-65
2023/07/14 11:00:45;;;;;;;;;;;;;;;31.84;36.37;101064.44;107637;1255;113952;-63
2023/07/14 11:03:13;;;;;;;;;;;;;;;32.26;35.38;101060.61;107646;1251;109744;-65
2023/07/14 11:05:45;;;;;;;;;;;;;;;32.80;34.38;101063.20;107634;1251;108390;-63
2023/07/14 11:08:14;;;;;;;;;;;;;;;33.30;34.75;101063.04;107588;1254;99055;-63
2023/07/14 11:11:04;;;;;;;;;;;;;;;33.61;34.82;101065.46;107651;1254;99174;-64
2023/07/14 11:13:37;;;;;;;;;;;;;;;33.80;34.24;101065.15;107640;1254;113496;-63
2023/07/14 11:16:10;;;;;;;;;;;;;;;34.38;33.44;101062.34;107650;1251;109112;-62
2023/07/14 11:19:01;;;;;;;;;;;;;;;35.00;31.87;101060.11;107592;1253;107726;-62
2023/07/14 11:21:38;;;;;;;;;;;;;;;35.52;30.81;101056.72;107552;1254;99189;-62
2023/07/14 11:24:18;;;;;;;;;;;;;;;35.54;30.41;101061.60;107618;1256;99137;-62
2023/07/14 11:27:05;;;;;;;;;;;;;;;34.87;31.34;101066.25;107575;1253;113398;-62
2023/07/14 11:29:54;;;;;;;;;;;;;;;34.30;32.16;101067.56;107604;1256;109325;-63
2023/07/14 11:32:23;;;;;;;;;;;;;;;34.60;31.54;101062.86;107604;1252;109261;-62
2023/07/14 11:35:09;;;;;;;;;;;;;;;35.24;31.89;101061.33;107625;1256;99291;-62
2023/07/14 11:37:44;;;;;;;;;;;;;;;36.13;30.38;101061.29;107652;1251;99048;-64
2023/07/14 11:40:21;;;;;;;;;;;;;;;36.73;29.15;101052.52;107681;1250;112583;-65
2023/07/14 11:42:56;;;;;;;;;;;;;;;36.05;28.90;101052.56;107620;1251;110818;-65
2023/07/14 11:45:27;;;;;;;;;;;;;;;35.29;29.44;101058.24;107553;1254;108083;-64
2023/07/14 11:47:57;;;;;;;;;;;;;;;35.40;29.78;101059.20;107580;1254;99109;-65
2023/07/14 11:50:28;;;;;;;;;;;;;;;35.97;29.04;101052.68;107623;1253;99031;-64
2023/07/14 11:53:18;;;;;;;;;;;;;;;36.34;28.52;101049.40;107637;1254;113010;-64
2023/07/14 11:55:51;;;;;;;;;;;;;;;36.69;27.95;101047.04;107577;1254;109454;-65
2023/07/14 11:58:27;;;;;;;;;;;;;;;36.75;27.62;101047.05;107598;1256;107841;-62
2023/07/14 12:01:06;;;;;;;;;;;;;;;36.81;28.41;101046.91;107633;1254;99142;-62
2023/07/14 12:03:38;;;;;;;;;;;;;;;37.38;28.13;101037.36;107633;1254;99189;-63
2023/07/14 12:06:16;;;;;;;;;;;;;;;37.99;27.36;101038.27;107614;1254;113340;-62
2023/07/14 12:09:03;;;;;;;;;;;;;;;38.63;26.27;101041.19;107605;1254;110088;-62
2023/07/14 12:11:40;;;;;;;;;;;;;;;39.10;24.98;101040.20;107612;1254;106992;-63
2023/07/14 12:14:30;;;;;;;;;;;;;;;39.48;24.86;101037.05;107651;1254;99086;-64
2023/07/14 12:16:59;;;;;;;;;;;;;;;39.72;24.45;101036.30;107635;1251;99022;-64
2023/07/14 12:19:32;;;;;;;;;;;;;;;40.00;24.36;101033.18;107614;1254;112354;-63
2023/07/14 12:22:03;;;;;;;;;;;;;;;39.85;24.02;101029.92;107655;1254;110006;-62
2023/07/14 12:24:38;;;;;;;;;;;;;;;39.35;24.79;101028.11;107640;1256;107228;-61
2023/07/14 12:27:06;;;;;;;;;;;;;;;39.17;24.66;101026.18;107617;1254;99268;-63
2023/07/14 12:29:36;;;;;;;;;;;;;;;38.34;24.94;101020.59;107613;1251;99057;-65
2023/07/14 12:32:24;;;;;;;;;;;;;;;37.83;26.13;101015.50;107607;1254;113201;-62
2023/07/14 12:34:53;;;;;;;;;;;;;;;37.69;26.20;101010.92;107623;1254;108637;-65
2023/07/14 12:37:22;;;;;;;;;;;;;;;37.16;27.09;101009.04;107554;1254;108021;-63
2023/07/14 12:39:52;;;;;;;;;;;;;;;37.63;26.77;101003.06;107569;1254;99583;-63
2023/07/14 12:42:21;;;;;;;;;;;;;;;38.17;25.67;100999.52;107539;1258;99230;-62
2023/07/14 12:44:52;;;;;;;;;;;;;;;38.27;25.60;100999.59;107644;1254;112701;-66